Terminal Aerodrome Forecast
Issued by NWS

Home | Current Version | Previous Version | Graphics & Text | Print | Product List | Glossary On
Versions: 1 2 3 4 5 6 7 8 9 10 11 12 13 14 15 16 17 18 19 20 21 22 23 24 25 26 27
557
FTUS43 KLOT 200306 AAA
TAFORD
TAF AMD
KORD 200306Z 2003/2106 11005KT P6SM FEW025 SCT200
     FM200900 13003KT 3SM BR SCT008
      TEMPO 2009/2013 1SM BR BKN008
     FM201400 17008KT 6SM BR FEW015 SCT040
     FM201800 18012G19KT P6SM SCT060 SCT250=

USA.gov is the U.S. government's official web portal to all federal, state and local government web resources and services.